createdAt,value
2019-03-21T00:01:17.145Z,19.53
2019-03-21T00:03:51.464Z,20.03
2019-03-21T00:06:23.816Z,22.17
2019-03-21T00:08:56.072Z,21.63
2019-03-21T00:11:56.829Z,21.80
2019-03-21T00:14:41.201Z,20.67
2019-03-21T00:17:14.280Z,19.97
2019-03-21T00:19:46.637Z,21.20
2019-03-21T00:22:18.909Z,21.50
2019-03-21T00:24:51.160Z,20.47
2019-03-21T00:27:23.600Z,20.97
2019-03-21T00:29:55.860Z,19.93
2019-03-21T00:32:28.114Z,20.90
2019-03-21T00:35:00.376Z,20.43
2019-03-21T00:37:32.660Z,20.03
2019-03-21T00:40:07.274Z,20.90
2019-03-21T00:42:39.522Z,19.63
2019-03-21T00:45:13.353Z,19.30
2019-03-21T00:47:45.721Z,20.70
2019-03-21T00:50:19.524Z,19.87
2019-03-21T00:52:52.592Z,19.67
2019-03-21T00:55:25.608Z,19.70
2019-03-21T00:57:58.825Z,20.33
2019-03-21T01:00:34.753Z,20.33
2019-03-21T01:03:07.830Z,19.63
2019-03-21T01:05:40.174Z,21.80
2019-03-21T01:08:12.511Z,21.20
2019-03-21T01:10:44.897Z,20.33
2019-03-21T01:13:17.156Z,21.33
2019-03-21T01:15:49.404Z,22.17
2019-03-21T01:18:21.653Z,20.97
2019-03-21T01:20:53.900Z,21.17
2019-03-21T01:23:26.280Z,21.77
2019-03-21T01:25:59.389Z,20.63
2019-03-21T01:28:31.635Z,21.50
2019-03-21T01:31:03.997Z,20.33
2019-03-21T01:33:36.276Z,19.97
2019-03-21T01:36:08.541Z,20.57
2019-03-21T01:38:40.788Z,21.73
2019-03-21T01:41:13.047Z,22.17
2019-03-21T01:43:45.309Z,22.50
2019-03-21T01:46:17.688Z,22.17
2019-03-21T01:48:49.932Z,22.90
2019-03-21T01:51:22.297Z,21.53
2019-03-21T01:53:54.567Z,24.17
2019-03-21T01:56:27.869Z,21.90
2019-03-21T01:59:00.126Z,22.60
2019-03-21T02:01:32.560Z,23.47
2019-03-21T02:04:04.788Z,22.33
2019-03-21T02:06:37.089Z,20.93
2019-03-21T02:09:09.530Z,22.17
2019-03-21T02:11:41.876Z,21.03
2019-03-21T02:14:14.126Z,21.80
2019-03-21T02:16:46.402Z,21.07
2019-03-21T02:19:18.644Z,22.17
2019-03-21T02:21:50.900Z,21.77
2019-03-21T02:24:23.165Z,21.17
2019-03-21T02:26:55.420Z,18.90
2019-03-21T02:29:27.672Z,20.50
2019-03-21T02:31:59.954Z,20.13
2019-03-21T02:34:32.300Z,19.83
2019-03-21T02:37:04.543Z,20.70
2019-03-21T02:39:37.067Z,20.47
2019-03-21T02:42:09.528Z,20.90
2019-03-21T02:44:41.900Z,19.83
2019-03-21T02:47:14.238Z,18.80
2019-03-21T02:49:46.587Z,20.20
2019-03-21T02:52:18.844Z,20.33
2019-03-21T02:54:51.111Z,19.80
2019-03-21T02:57:23.368Z,19.33
2019-03-21T02:59:55.625Z,20.10
2019-03-21T03:02:27.873Z,18.83
2019-03-21T03:05:00.348Z,20.10
2019-03-21T03:07:33.532Z,21.50
2019-03-21T03:10:08.701Z,19.57
2019-03-21T03:12:41.062Z,18.60
2019-03-21T03:15:22.643Z,20.30
2019-03-21T03:17:49.223Z,18.93
2019-03-21T03:20:21.456Z,19.33
2019-03-21T03:22:53.704Z,18.33
2019-03-21T03:25:26.077Z,20.37
2019-03-21T03:28:01.637Z,20.60
2019-03-21T03:30:33.982Z,20.23
2019-03-21T03:33:06.960Z,17.83
2019-03-21T03:35:39.292Z,19.83
2019-03-21T03:38:11.567Z,19.07
2019-03-21T03:40:46.156Z,19.80
2019-03-21T03:43:18.535Z,19.33
2019-03-21T03:45:50.789Z,20.07
2019-03-21T03:48:23.180Z,21.00
2019-03-21T03:50:55.429Z,22.80
2019-03-21T03:53:27.797Z,21.70
2019-03-21T03:56:00.228Z,21.53
2019-03-21T03:58:32.898Z,22.40
2019-03-21T04:01:05.148Z,23.53
2019-03-21T04:03:37.522Z,24.03
2019-03-21T04:06:09.973Z,23.43
2019-03-21T04:08:42.445Z,23.20
2019-03-21T04:11:15.009Z,23.57
2019-03-21T04:13:47.290Z,24.30
2019-03-21T04:16:19.543Z,24.53
2019-03-21T04:18:51.806Z,24.77
2019-03-21T04:21:24.035Z,25.30
2019-03-21T04:23:59.544Z,26.30
2019-03-21T04:26:30.639Z,26.13
2019-03-21T04:29:03.091Z,24.77
2019-03-21T04:31:35.353Z,26.37
2019-03-21T04:34:08.230Z,25.37
2019-03-21T04:36:40.582Z,24.90
2019-03-21T04:39:12.893Z,25.67
2019-03-21T04:41:45.151Z,28.03
2019-03-21T04:44:17.431Z,26.53
2019-03-21T04:46:49.796Z,25.13
2019-03-21T04:49:22.143Z,27.13
2019-03-21T04:51:54.424Z,25.30
2019-03-21T04:54:26.695Z,25.63
2019-03-21T04:56:59.025Z,26.70
2019-03-21T04:59:31.291Z,25.07
2019-03-21T05:02:03.643Z,26.00
2019-03-21T05:04:36.089Z,25.67
2019-03-21T05:07:08.428Z,26.03
2019-03-21T05:09:40.694Z,26.30
2019-03-21T05:12:12.916Z,24.20
2019-03-21T05:14:45.215Z,26.70
2019-03-21T05:17:17.466Z,25.90
2019-03-21T05:19:49.708Z,25.53
2019-03-21T05:22:22.062Z,26.93
2019-03-21T05:24:54.380Z,25.87
2019-03-21T05:27:26.699Z,26.00
2019-03-21T05:29:59.037Z,27.03
2019-03-21T05:32:31.295Z,26.60
2019-03-21T05:35:04.040Z,26.57
2019-03-21T05:37:36.374Z,25.93
2019-03-21T05:40:10.758Z,25.33
2019-03-21T05:42:47.432Z,28.70
2019-03-21T05:45:19.904Z,28.67
2019-03-21T05:47:52.160Z,26.53
2019-03-21T05:50:24.432Z,26.53
2019-03-21T05:52:56.724Z,27.47
2019-03-21T05:55:31.328Z,28.77
2019-03-21T05:58:08.552Z,26.03
2019-03-21T06:00:42.025Z,28.37
2019-03-21T06:03:20.718Z,30.27
2019-03-21T06:06:08.657Z,30.37
2019-03-21T06:08:41.117Z,28.70
2019-03-21T06:11:13.385Z,30.63
2019-03-21T06:13:45.648Z,28.97
2019-03-21T06:16:17.928Z,33.20
2019-03-21T06:19:14.739Z,31.10
2019-03-21T06:21:57.235Z,30.17
2019-03-21T06:24:34.645Z,30.10
2019-03-21T06:27:25.704Z,29.73
2019-03-21T06:29:58.060Z,32.73
2019-03-21T06:32:30.444Z,31.63
2019-03-21T06:35:03.301Z,31.20
2019-03-21T06:37:35.593Z,31.27
2019-03-21T06:40:08.023Z,29.33
2019-03-21T06:42:40.288Z,30.73
2019-03-21T06:45:12.633Z,30.47
2019-03-21T06:47:44.896Z,31.70
2019-03-21T06:50:17.151Z,30.87
2019-03-21T06:52:49.440Z,33.10
2019-03-21T06:55:21.794Z,33.50
2019-03-21T06:57:54.084Z,32.83
2019-03-21T07:00:26.425Z,33.67
2019-03-21T07:02:58.712Z,34.07
2019-03-21T07:05:31.009Z,33.03
2019-03-21T07:08:03.368Z,32.07
2019-03-21T07:10:35.753Z,31.73
2019-03-21T07:13:08.012Z,32.10
2019-03-21T07:15:40.332Z,31.97
2019-03-21T07:18:12.732Z,33.47
2019-03-21T07:20:45.012Z,32.97
2019-03-21T07:23:17.392Z,33.27
2019-03-21T07:25:49.869Z,32.53
2019-03-21T07:28:22.195Z,33.67
2019-03-21T07:30:54.436Z,33.23
2019-03-21T07:33:26.701Z,32.17
2019-03-21T07:35:59.058Z,33.80
2019-03-21T07:38:31.444Z,35.33
2019-03-21T07:41:03.826Z,35.10
2019-03-21T07:43:36.177Z,34.93
2019-03-21T07:46:08.435Z,33.07
2019-03-21T07:48:40.688Z,33.00
2019-03-21T07:51:13.036Z,33.47
2019-03-21T07:53:45.340Z,34.27
2019-03-21T07:56:17.595Z,34.07
2019-03-21T07:58:49.947Z,30.33
2019-03-21T08:01:22.245Z,34.00
2019-03-21T08:03:54.603Z,34.37
2019-03-21T08:06:26.848Z,33.27
2019-03-21T08:08:59.238Z,31.93
2019-03-21T08:11:31.606Z,35.50
2019-03-21T08:14:04.120Z,32.37
2019-03-21T08:16:36.524Z,32.63
2019-03-21T08:19:08.825Z,32.40
2019-03-21T08:21:43.056Z,32.60
2019-03-21T08:24:15.346Z,32.40
2019-03-21T08:26:47.618Z,30.53
2019-03-21T08:29:20.002Z,32.10
2019-03-21T08:31:52.258Z,30.47
2019-03-21T08:34:24.569Z,30.40
2019-03-21T08:36:56.969Z,30.93
2019-03-21T08:39:29.241Z,31.53
2019-03-21T08:42:01.528Z,27.73
2019-03-21T08:44:33.827Z,26.30
2019-03-21T08:47:06.170Z,27.93
2019-03-21T08:49:38.453Z,25.73
2019-03-21T08:52:10.725Z,26.87
2019-03-21T08:54:43.038Z,23.67
2019-03-21T08:57:15.309Z,24.53
2019-03-21T08:59:48.108Z,24.23
2019-03-21T09:02:20.603Z,23.03
2019-03-21T09:04:53.125Z,24.53
2019-03-21T09:07:25.488Z,23.47
2019-03-21T09:09:57.785Z,23.40
2019-03-21T09:12:30.121Z,23.83
2019-03-21T09:15:02.562Z,25.30
2019-03-21T09:17:34.900Z,23.60
2019-03-21T09:20:07.975Z,24.17
2019-03-21T09:22:40.257Z,24.90
2019-03-21T09:25:12.771Z,24.23
2019-03-21T09:27:45.128Z,22.40
2019-03-21T09:30:17.540Z,25.50
2019-03-21T09:32:49.833Z,24.07
2019-03-21T09:35:22.215Z,24.10
2019-03-21T09:37:54.485Z,23.50
2019-03-21T09:40:26.847Z,22.87
2019-03-21T09:42:59.145Z,23.07
2019-03-21T09:45:31.456Z,21.23
2019-03-21T09:48:04.027Z,21.50
2019-03-21T09:50:36.304Z,22.90
2019-03-21T09:53:08.540Z,21.87
2019-03-21T09:55:40.791Z,20.83
2019-03-21T09:58:13.161Z,20.53
2019-03-21T10:00:45.432Z,22.10
2019-03-21T10:03:17.786Z,20.80
2019-03-21T10:05:50.196Z,21.70
2019-03-21T10:08:22.559Z,21.30
2019-03-21T10:10:54.874Z,21.73
2019-03-21T10:13:27.131Z,23.07
2019-03-21T10:15:59.531Z,20.97
2019-03-21T10:18:31.975Z,24.40
2019-03-21T10:21:04.236Z,21.47
2019-03-21T10:23:36.515Z,21.40
2019-03-21T10:26:08.907Z,21.90
2019-03-21T10:28:41.249Z,21.83
2019-03-21T10:31:13.746Z,20.90
2019-03-21T10:33:46.097Z,22.40
2019-03-21T10:36:18.357Z,21.87
2019-03-21T10:38:50.619Z,21.37
2019-03-21T10:41:22.885Z,21.83
2019-03-21T10:43:55.225Z,21.67
2019-03-21T10:46:27.502Z,21.10
2019-03-21T10:48:59.862Z,20.60
2019-03-21T10:51:32.172Z,20.60
2019-03-21T10:54:04.477Z,20.97
2019-03-21T10:56:36.747Z,19.30
2019-03-21T10:59:09.013Z,17.63
2019-03-21T11:01:41.389Z,21.47
2019-03-21T11:04:13.743Z,22.57
2019-03-21T11:06:46.131Z,19.57
2019-03-21T11:09:18.573Z,22.00
2019-03-21T11:11:50.916Z,18.60
2019-03-21T11:14:23.171Z,18.43
2019-03-21T11:16:55.540Z,18.20
2019-03-21T11:19:27.791Z,20.77
2019-03-21T11:22:06.224Z,17.00
2019-03-21T11:24:34.457Z,22.00
2019-03-21T11:27:06.745Z,18.77
2019-03-21T11:29:39.021Z,21.60
2019-03-21T11:32:11.417Z,21.90
2019-03-21T11:34:43.672Z,22.90
2019-03-21T11:37:16.036Z,21.70
2019-03-21T11:39:48.313Z,20.27
2019-03-21T11:42:20.787Z,20.80
2019-03-21T11:44:53.132Z,20.80
2019-03-21T11:47:25.424Z,22.63
2019-03-21T11:49:57.791Z,24.07
2019-03-21T11:52:30.192Z,23.17
2019-03-21T11:55:03.329Z,23.70
2019-03-21T11:57:35.636Z,22.60
2019-03-21T12:00:08.432Z,23.80
2019-03-21T12:02:40.779Z,22.70
2019-03-21T12:05:13.311Z,24.63
2019-03-21T12:07:45.688Z,21.30
2019-03-21T12:10:18.059Z,23.27
2019-03-21T12:12:50.379Z,23.93
2019-03-21T12:15:22.720Z,23.87
2019-03-21T12:17:55.213Z,22.80
2019-03-21T12:20:29.420Z,26.23
2019-03-21T12:23:01.893Z,25.23
2019-03-21T12:25:34.273Z,23.50
2019-03-21T12:28:06.563Z,26.40
2019-03-21T12:30:40.397Z,25.07
2019-03-21T12:33:12.673Z,24.00
2019-03-21T12:35:45.080Z,23.27
2019-03-21T12:38:17.443Z,24.17
2019-03-21T12:40:49.716Z,24.73
2019-03-21T12:43:22.052Z,24.10
2019-03-21T12:45:54.446Z,25.27
2019-03-21T12:48:26.986Z,26.83
2019-03-21T12:50:59.324Z,26.80
2019-03-21T12:53:31.732Z,25.93
2019-03-21T12:56:04.089Z,26.67
2019-03-21T12:58:36.364Z,26.33
2019-03-21T13:01:08.617Z,25.60
2019-03-21T13:03:41.132Z,24.67
2019-03-21T13:06:13.389Z,25.60
2019-03-21T13:08:45.671Z,26.00
2019-03-21T13:11:17.977Z,26.40
2019-03-21T13:13:50.369Z,26.73
2019-03-21T13:16:22.709Z,25.13
2019-03-21T13:18:58.065Z,25.37
2019-03-21T13:21:30.433Z,26.83
2019-03-21T13:24:02.824Z,25.73
2019-03-21T13:26:35.203Z,26.33
2019-03-21T13:29:07.592Z,25.93
2019-03-21T13:31:39.853Z,25.77
2019-03-21T13:34:12.139Z,25.67
2019-03-21T13:36:44.444Z,27.10
2019-03-21T13:39:16.751Z,28.50
2019-03-21T13:41:49.008Z,24.87
2019-03-21T13:44:21.289Z,29.03
2019-03-21T13:46:53.513Z,26.70
2019-03-21T13:49:25.793Z,25.53
2019-03-21T13:51:58.041Z,27.60
2019-03-21T13:54:30.336Z,27.10
2019-03-21T13:57:02.817Z,28.83
2019-03-21T13:59:35.165Z,25.60
2019-03-21T14:02:07.465Z,27.07
2019-03-21T14:04:39.744Z,27.57
2019-03-21T14:07:12.048Z,27.40
2019-03-21T14:09:44.363Z,27.40
2019-03-21T14:12:16.720Z,25.53
2019-03-21T14:14:49.118Z,25.50
2019-03-21T14:17:22.355Z,27.33
2019-03-21T14:19:54.776Z,26.83
2019-03-21T14:22:27.024Z,28.07
2019-03-21T14:24:59.309Z,29.40
2019-03-21T14:27:31.672Z,26.83
2019-03-21T14:30:05.147Z,26.53
2019-03-21T14:32:37.465Z,26.67
2019-03-21T14:35:10.067Z,27.77
2019-03-21T14:37:42.609Z,26.03
2019-03-21T14:40:15.685Z,26.90
2019-03-21T14:42:48.312Z,25.37
2019-03-21T14:45:20.719Z,25.23
2019-03-21T14:47:52.970Z,25.80
2019-03-21T14:50:25.229Z,27.37
2019-03-21T14:52:57.492Z,26.73
2019-03-21T14:55:29.873Z,26.97
2019-03-21T14:58:02.489Z,25.77
2019-03-21T15:00:34.780Z,26.20
2019-03-21T15:03:07.045Z,23.60
2019-03-21T15:05:39.400Z,25.00
2019-03-21T15:08:11.771Z,23.07
2019-03-21T15:10:44.033Z,23.97
2019-03-21T15:13:16.317Z,24.83
2019-03-21T15:15:48.686Z,24.03
2019-03-21T15:18:21.080Z,27.13
2019-03-21T15:20:53.458Z,25.70
2019-03-21T15:23:26.030Z,25.30
2019-03-21T15:25:58.679Z,25.67
2019-03-21T15:28:31.208Z,25.10
2019-03-21T15:31:03.691Z,22.87
2019-03-21T15:33:35.920Z,24.37
2019-03-21T15:36:08.223Z,24.60
2019-03-21T15:38:40.457Z,23.60
2019-03-21T15:41:12.720Z,23.63
2019-03-21T15:43:44.991Z,24.63
2019-03-21T15:46:17.279Z,23.93
2019-03-21T15:48:50.348Z,23.53
2019-03-21T15:51:22.627Z,25.27
2019-03-21T15:53:56.644Z,23.90
2019-03-21T15:56:29.056Z,24.13
2019-03-21T15:59:01.321Z,24.60
2019-03-21T16:01:33.612Z,25.93
2019-03-21T16:04:05.976Z,25.10
2019-03-21T16:06:38.334Z,26.50
2019-03-21T16:09:10.697Z,24.90
2019-03-21T16:11:42.996Z,24.27
2019-03-21T16:14:15.284Z,24.37
2019-03-21T16:16:47.689Z,24.37
2019-03-21T16:19:19.964Z,23.30
2019-03-21T16:21:52.249Z,24.77
2019-03-21T16:24:24.510Z,24.63
2019-03-21T16:26:56.917Z,25.43
2019-03-21T16:29:29.265Z,25.63
2019-03-21T16:32:02.543Z,24.97
2019-03-21T16:34:35.161Z,26.50
2019-03-21T16:37:07.472Z,25.13
2019-03-21T16:39:39.780Z,25.20
2019-03-21T16:42:12.041Z,24.33
2019-03-21T16:44:44.397Z,23.93
2019-03-21T16:47:16.674Z,23.73
2019-03-21T16:49:48.932Z,24.23
2019-03-21T16:52:21.455Z,24.77
2019-03-21T16:54:53.716Z,24.93
2019-03-21T16:57:26.037Z,28.27
2019-03-21T16:59:58.400Z,27.27
2019-03-21T17:02:30.741Z,25.00
2019-03-21T17:05:03.591Z,27.07
2019-03-21T17:07:35.976Z,30.13
2019-03-21T17:10:09.096Z,31.87
2019-03-21T17:12:41.408Z,24.03
2019-03-21T17:15:13.939Z,24.60
2019-03-21T17:17:46.301Z,22.90
2019-03-21T17:20:18.560Z,23.80
2019-03-21T17:22:51.010Z,23.07
2019-03-21T17:25:23.319Z,24.93
2019-03-21T17:27:55.601Z,29.27
2019-03-21T17:31:26.763Z,31.10
2019-03-21T17:33:59.140Z,28.97
2019-03-21T17:36:31.393Z,30.07
2019-03-21T17:39:06.628Z,29.43
2019-03-21T17:41:38.907Z,29.37
2019-03-21T17:44:11.273Z,30.90
2019-03-21T17:46:43.552Z,31.10
2019-03-21T17:49:15.911Z,34.90
2019-03-21T17:51:48.202Z,35.80
2019-03-21T17:54:20.493Z,38.10
2019-03-21T17:56:52.760Z,34.63
2019-03-21T17:59:25.034Z,34.70
2019-03-21T18:01:57.397Z,32.23
2019-03-21T18:04:30.390Z,30.93
2019-03-21T18:07:02.833Z,28.80
2019-03-21T18:09:35.121Z,29.53
2019-03-21T18:12:07.470Z,29.60
2019-03-21T18:14:39.768Z,30.03
2019-03-21T18:17:12.113Z,29.13
2019-03-21T18:19:44.383Z,30.97
2019-03-21T18:22:16.713Z,30.10
2019-03-21T18:24:53.715Z,28.67
2019-03-21T18:27:23.248Z,28.77
2019-03-21T18:29:55.523Z,27.23
2019-03-21T18:32:27.805Z,28.40
2019-03-21T18:35:00.168Z,29.10
2019-03-21T18:37:32.733Z,29.23
2019-03-21T18:40:05.446Z,29.03
2019-03-21T18:42:37.738Z,28.13
2019-03-21T18:45:10.464Z,29.37
2019-03-21T18:47:42.908Z,30.03
2019-03-21T18:50:15.500Z,31.70
2019-03-21T18:52:47.872Z,30.23
2019-03-21T18:55:20.126Z,30.77
2019-03-21T18:57:52.467Z,31.70
2019-03-21T19:00:24.846Z,32.03
2019-03-21T19:02:57.180Z,32.37
2019-03-21T19:05:29.462Z,32.83
2019-03-21T19:08:01.832Z,33.30
2019-03-21T19:10:34.584Z,34.43
2019-03-21T19:13:06.948Z,32.60
2019-03-21T19:15:39.220Z,35.53
2019-03-21T19:18:11.470Z,36.23
2019-03-21T19:20:43.753Z,34.07
2019-03-21T19:23:16.073Z,34.53
2019-03-21T19:25:48.448Z,37.17
2019-03-21T19:28:20.925Z,37.90
2019-03-21T19:30:53.227Z,37.03
2019-03-21T19:33:25.542Z,38.20
2019-03-21T19:35:57.973Z,38.63
2019-03-21T19:38:30.490Z,40.00
2019-03-21T19:41:02.910Z,38.13
2019-03-21T19:43:35.177Z,37.43
2019-03-21T19:46:07.550Z,39.27
2019-03-21T19:48:49.730Z,41.20
2019-03-21T19:51:14.050Z,46.07
2019-03-21T19:53:46.420Z,44.73
2019-03-21T19:56:18.717Z,41.43
2019-03-21T19:58:50.997Z,46.43
2019-03-21T20:01:23.405Z,43.60
2019-03-21T20:03:55.796Z,49.73
2019-03-21T20:06:28.169Z,49.27
2019-03-21T20:09:00.467Z,48.20
2019-03-21T20:11:32.835Z,46.37
2019-03-21T20:14:05.184Z,46.50
2019-03-21T20:16:37.600Z,44.30
2019-03-21T20:19:10.033Z,45.97
2019-03-21T20:21:47.798Z,43.73
2019-03-21T20:24:16.921Z,46.83
2019-03-21T20:26:49.300Z,47.30
2019-03-21T20:29:21.633Z,47.63
2019-03-21T20:31:54.152Z,46.73
2019-03-21T20:34:26.431Z,50.43
2019-03-21T20:36:58.827Z,51.93
2019-03-21T20:39:31.097Z,50.70
2019-03-21T20:42:03.403Z,52.03
2019-03-21T20:44:35.788Z,48.70
2019-03-21T20:47:08.238Z,49.27
2019-03-21T20:49:40.582Z,49.77
2019-03-21T20:52:12.849Z,51.87
2019-03-21T20:54:45.102Z,52.73
2019-03-21T20:57:17.457Z,52.80
2019-03-21T20:59:49.708Z,51.90
2019-03-21T21:02:21.957Z,51.70
2019-03-21T21:04:54.203Z,52.37
2019-03-21T21:07:26.555Z,49.77
2019-03-21T21:09:59.129Z,51.23
2019-03-21T21:12:31.440Z,49.90
2019-03-21T21:15:04.875Z,52.73
2019-03-21T21:17:37.132Z,53.70
2019-03-21T21:20:09.804Z,50.60
2019-03-21T21:22:42.208Z,54.17
2019-03-21T21:25:14.665Z,52.33
2019-03-21T21:27:49.661Z,49.97
2019-03-21T21:30:21.554Z,52.50
2019-03-21T21:32:53.833Z,52.57
2019-03-21T21:35:26.184Z,50.77
2019-03-21T21:37:58.444Z,53.37
2019-03-21T21:40:33.286Z,50.73
2019-03-21T21:43:05.677Z,49.67
2019-03-21T21:45:38.028Z,51.47
2019-03-21T21:48:10.288Z,51.60
2019-03-21T21:50:42.551Z,51.63
2019-03-21T21:53:14.824Z,52.03
2019-03-21T21:55:47.279Z,53.37
2019-03-21T21:58:19.653Z,50.13
2019-03-21T22:00:52.011Z,54.33
2019-03-21T22:03:24.285Z,51.27
2019-03-21T22:05:56.536Z,51.30
2019-03-21T22:08:28.785Z,48.87
2019-03-21T22:11:01.016Z,51.60
2019-03-21T22:13:33.294Z,51.60
2019-03-21T22:16:05.556Z,51.63
2019-03-21T22:18:37.877Z,51.63
2019-03-21T22:21:10.272Z,54.63
2019-03-21T22:23:42.672Z,53.70
2019-03-21T22:26:14.919Z,52.37
2019-03-21T22:28:47.220Z,53.30
2019-03-21T22:31:19.486Z,52.77
2019-03-21T22:33:51.755Z,53.67
2019-03-21T22:36:24.004Z,50.27
2019-03-21T22:38:56.261Z,50.67
2019-03-21T22:41:28.617Z,51.10
2019-03-21T22:44:00.862Z,54.97
2019-03-21T22:46:33.135Z,55.27
2019-03-21T22:49:05.639Z,54.97
2019-03-21T22:51:37.879Z,57.83
2019-03-21T22:54:10.157Z,55.13
2019-03-21T22:56:42.396Z,57.03
2019-03-21T22:59:14.642Z,59.70
2019-03-21T23:01:46.926Z,57.30
2019-03-21T23:04:19.181Z,57.53
2019-03-21T23:06:51.423Z,57.50
2019-03-21T23:09:23.681Z,57.77
2019-03-21T23:11:55.934Z,57.27
2019-03-21T23:14:28.241Z,58.83
2019-03-21T23:17:00.630Z,56.57
2019-03-21T23:19:32.916Z,59.37
2019-03-21T23:22:05.152Z,58.10
2019-03-21T23:24:37.424Z,53.43
2019-03-21T23:27:09.759Z,55.97
2019-03-21T23:29:42.117Z,58.13
2019-03-21T23:32:14.377Z,59.37
2019-03-21T23:34:46.632Z,58.40
2019-03-21T23:37:18.927Z,55.97
2019-03-21T23:39:51.311Z,57.73
2019-03-21T23:42:23.546Z,60.20
2019-03-21T23:44:55.790Z,63.90
2019-03-21T23:47:28.029Z,60.27
2019-03-21T23:50:00.351Z,59.73
2019-03-21T23:52:32.623Z,57.93
2019-03-21T23:55:05.432Z,57.20
2019-03-21T23:57:37.798Z,57.83
